createdAt,value
2022-11-24T14:23:42.395Z,100117.00
2022-11-24T14:30:02.403Z,100125.09
2022-11-24T14:32:38.041Z,100115.06
2022-11-24T14:35:31.693Z,100117.75
2022-11-24T14:38:01.738Z,100118.72
2022-11-24T14:40:40.636Z,100121.28
2022-11-24T14:43:34.751Z,100120.78
2022-11-24T14:46:09.478Z,100117.25
2022-11-24T14:48:38.841Z,100117.75
2022-11-24T14:51:06.428Z,100121.63
2022-11-24T14:53:51.695Z,100113.19
2022-11-24T14:56:19.370Z,100117.19
2022-11-24T14:58:46.604Z,100112.19
2022-11-24T15:01:32.948Z,100115.22
2022-11-24T15:04:46.269Z,100115.06
2022-11-24T15:07:29.259Z,100112.75
2022-11-24T15:10:05.513Z,100120.16
2022-11-24T15:12:35.852Z,100127.47
2022-11-24T15:15:06.025Z,100124.16
2022-11-24T15:17:48.396Z,100122.44
2022-11-24T15:20:32.229Z,100136.09
2022-11-24T15:23:12.663Z,100124.72
2022-11-24T15:29:58.951Z,100133.75
2022-11-24T15:33:29.057Z,100128.38
2022-11-24T15:35:56.695Z,100134.69
2022-11-24T15:38:24.050Z,100125.16
2022-11-24T15:40:53.706Z,100131.41
2022-11-24T15:43:40.580Z,100134.19
2022-11-24T15:46:10.396Z,100128.94
2022-11-24T15:48:38.565Z,100135.28
2022-11-24T15:51:07.450Z,100137.34
2022-11-24T15:53:40.819Z,100139.88
2022-11-24T15:58:25.127Z,100141.84
2022-11-24T16:00:17.513Z,100138.09
2022-11-24T16:02:49.766Z,100140.91
2022-11-24T16:05:35.767Z,100147.47
2022-11-24T16:08:16.818Z,100144.00
2022-11-24T16:10:48.648Z,100148.53
2022-11-24T16:13:16.443Z,100141.59
2022-11-24T16:15:43.778Z,100154.72
2022-11-24T16:18:13.994Z,100145.97
2022-11-24T16:20:42.924Z,100148.72
2022-11-24T16:23:10.164Z,100157.66
2022-11-24T16:25:38.212Z,100149.72
2022-11-24T16:28:08.730Z,100155.19
2022-11-24T16:30:36.103Z,100151.66
2022-11-24T16:33:08.308Z,100151.03
2022-11-24T16:35:36.113Z,100142.13
2022-11-24T16:38:03.497Z,100144.81
2022-11-24T16:40:31.146Z,100149.31
2022-11-24T16:42:58.946Z,100139.88
2022-11-24T16:45:26.268Z,100139.31
2022-11-24T16:47:57.052Z,100152.94
2022-11-24T16:50:25.007Z,100146.97
2022-11-24T16:57:26.890Z,100140.63
2022-11-24T17:00:05.006Z,100145.13
2022-11-24T17:02:36.785Z,100149.50
2022-11-24T17:05:05.066Z,100152.41
2022-11-24T17:07:33.271Z,100145.56
2022-11-24T17:10:01.482Z,100148.34
2022-11-24T17:12:31.191Z,100146.00
2022-11-24T17:15:30.452Z,100141.72
2022-11-24T17:18:16.181Z,100154.13
